createdAt,value
2019-02-19T00:02:13.290Z,6.90
2019-02-19T00:04:41.934Z,6.90
2019-02-19T00:07:10.570Z,6.80
2019-02-19T00:09:39.145Z,6.80
2019-02-19T00:12:07.726Z,6.80
2019-02-19T00:14:36.297Z,6.80
2019-02-19T00:17:05.030Z,6.90
2019-02-19T00:19:33.678Z,6.90
2019-02-19T00:22:02.326Z,6.90
2019-02-19T00:24:30.913Z,6.90
2019-02-19T00:26:59.487Z,7.00
2019-02-19T00:29:28.074Z,7.00
2019-02-19T00:31:56.646Z,7.00
2019-02-19T00:34:25.379Z,7.00
2019-02-19T00:36:53.995Z,7.00
2019-02-19T00:39:22.830Z,7.00
2019-02-19T00:41:51.405Z,7.00
2019-02-19T00:44:20.047Z,7.00
2019-02-19T00:46:48.636Z,7.00
2019-02-19T00:49:17.276Z,7.00
2019-02-19T00:51:45.931Z,7.00
2019-02-19T00:54:14.538Z,7.00
2019-02-19T00:56:43.120Z,7.00
2019-02-19T00:59:11.686Z,7.00
2019-02-19T01:01:40.293Z,7.00
2019-02-19T01:04:08.871Z,7.00
2019-02-19T01:06:37.514Z,7.00
2019-02-19T01:09:08.636Z,7.00
2019-02-19T01:11:37.450Z,7.00
2019-02-19T01:14:06.106Z,7.00
2019-02-19T01:16:34.813Z,7.00
2019-02-19T01:19:03.409Z,7.00
2019-02-19T01:21:31.983Z,6.90
2019-02-19T01:24:00.566Z,6.90
2019-02-19T01:26:29.145Z,6.90
2019-02-19T01:29:00.677Z,6.90
2019-02-19T01:31:29.254Z,6.90
2019-02-19T01:33:57.827Z,6.90
2019-02-19T01:36:26.408Z,7.00
2019-02-19T01:38:54.978Z,7.00
2019-02-19T01:41:23.634Z,6.90
2019-02-19T01:43:52.210Z,6.90
2019-02-19T01:46:20.798Z,6.90
2019-02-19T01:48:49.418Z,7.00
2019-02-19T01:51:18.011Z,6.90
2019-02-19T01:53:46.596Z,7.00
2019-02-19T01:56:15.162Z,6.90
2019-02-19T01:58:43.741Z,6.90
2019-02-19T02:01:12.386Z,6.90
2019-02-19T02:03:40.974Z,7.00
2019-02-19T02:06:09.543Z,7.00
2019-02-19T02:08:38.130Z,7.00
2019-02-19T02:11:06.703Z,7.00
2019-02-19T02:13:35.338Z,7.10
2019-02-19T02:16:03.994Z,7.10
2019-02-19T02:18:32.630Z,7.10
2019-02-19T02:21:01.278Z,7.20
2019-02-19T02:23:29.882Z,7.20
2019-02-19T02:25:58.486Z,7.20
2019-02-19T02:28:27.054Z,7.30
2019-02-19T02:30:55.664Z,7.30
2019-02-19T02:33:24.236Z,7.30
2019-02-19T02:35:52.830Z,7.30
2019-02-19T02:38:21.410Z,7.40
2019-02-19T02:40:49.985Z,7.40
2019-02-19T02:43:18.572Z,7.50
2019-02-19T02:45:53.523Z,7.40
2019-02-19T02:48:17.374Z,7.40
2019-02-19T02:50:45.945Z,7.40
2019-02-19T02:53:14.529Z,7.40
2019-02-19T02:55:43.106Z,7.40
2019-02-19T02:58:11.698Z,7.40
2019-02-19T03:00:40.270Z,7.30
2019-02-19T03:03:08.850Z,7.40
2019-02-19T03:05:39.075Z,7.30
2019-02-19T03:08:07.724Z,7.30
2019-02-19T03:10:36.306Z,7.20
2019-02-19T03:13:04.874Z,7.20
2019-02-19T03:15:33.456Z,7.20
2019-02-19T03:18:02.030Z,7.20
2019-02-19T03:20:30.707Z,7.20
2019-02-19T03:22:59.279Z,7.20
2019-02-19T03:25:27.851Z,7.30
2019-02-19T03:27:56.482Z,7.20
2019-02-19T03:30:25.052Z,7.20
2019-02-19T03:32:53.632Z,7.30
2019-02-19T03:35:22.206Z,7.30
2019-02-19T03:37:50.796Z,7.40
2019-02-19T03:40:19.435Z,7.40
2019-02-19T03:42:48.018Z,7.40
2019-02-19T03:45:16.587Z,7.30
2019-02-19T03:47:45.166Z,7.30
2019-02-19T03:50:13.738Z,7.30
2019-02-19T03:52:42.330Z,7.30
2019-02-19T03:55:11.049Z,7.20
2019-02-19T03:57:39.889Z,7.20
2019-02-19T04:00:09.222Z,7.20
2019-02-19T04:02:37.930Z,7.20
2019-02-19T04:05:06.949Z,7.30
2019-02-19T04:07:35.506Z,7.30
2019-02-19T04:10:06.418Z,7.30
2019-02-19T04:12:35.002Z,7.30
2019-02-19T04:15:04.018Z,7.20
2019-02-19T04:17:32.751Z,7.10
2019-02-19T04:20:01.326Z,7.20
2019-02-19T04:22:29.982Z,7.20
2019-02-19T04:24:58.587Z,7.20
2019-02-19T04:27:27.178Z,7.20
2019-02-19T04:29:55.756Z,7.20
2019-02-19T04:32:24.327Z,7.10
2019-02-19T04:34:52.921Z,7.10
2019-02-19T04:37:21.479Z,7.00
2019-02-19T04:39:50.058Z,7.00
2019-02-19T04:42:18.643Z,6.90
2019-02-19T04:44:47.219Z,6.90
2019-02-19T04:47:15.790Z,6.90
2019-02-19T04:49:44.375Z,6.80
2019-02-19T04:52:12.954Z,6.80
2019-02-19T04:54:41.518Z,6.80
2019-02-19T04:57:10.102Z,6.80
2019-02-19T04:59:38.680Z,6.80
2019-02-19T05:02:07.321Z,6.70
2019-02-19T05:04:35.890Z,6.70
2019-02-19T05:07:04.475Z,6.70
2019-02-19T05:09:33.052Z,6.60
2019-02-19T05:12:01.634Z,6.60
2019-02-19T05:14:30.202Z,6.60
2019-02-19T05:16:58.979Z,6.50
2019-02-19T05:19:27.554Z,6.50
2019-02-19T05:21:56.132Z,6.40
2019-02-19T05:24:24.712Z,6.40
2019-02-19T05:26:53.286Z,6.40
2019-02-19T05:29:21.863Z,6.30
2019-02-19T05:31:50.441Z,6.30
2019-02-19T05:34:19.037Z,6.30
2019-02-19T05:36:47.650Z,6.20
2019-02-19T05:39:16.281Z,6.30
2019-02-19T05:41:44.850Z,6.30
2019-02-19T05:44:13.426Z,6.30
2019-02-19T05:46:49.622Z,6.20
2019-02-19T05:49:12.228Z,6.20
2019-02-19T05:51:40.813Z,6.10
2019-02-19T05:54:09.382Z,6.10
2019-02-19T05:56:38.030Z,6.10
2019-02-19T05:59:06.605Z,6.00
2019-02-19T06:01:35.221Z,6.00
2019-02-19T06:04:03.863Z,6.00
2019-02-19T06:06:32.433Z,6.00
2019-02-19T06:09:01.014Z,6.00
2019-02-19T06:11:29.590Z,5.90
2019-02-19T06:13:58.170Z,5.90
2019-02-19T06:16:26.743Z,5.90
2019-02-19T06:18:55.509Z,5.80
2019-02-19T06:21:24.086Z,5.80
2019-02-19T06:23:52.909Z,5.70
2019-02-19T06:26:21.562Z,5.70
2019-02-19T06:28:50.130Z,5.70
2019-02-19T06:31:18.722Z,5.70
2019-02-19T06:33:47.278Z,5.70
2019-02-19T06:36:15.879Z,5.70
2019-02-19T06:38:44.448Z,5.70
2019-02-19T06:41:13.027Z,5.70
2019-02-19T06:43:41.593Z,5.70
2019-02-19T06:46:10.173Z,5.70
2019-02-19T06:48:38.734Z,5.70
2019-02-19T06:51:07.310Z,5.70
2019-02-19T06:53:35.959Z,5.70
2019-02-19T06:56:04.667Z,5.70
2019-02-19T06:58:33.246Z,5.70
2019-02-19T07:01:01.890Z,5.80
2019-02-19T07:03:32.107Z,5.80
2019-02-19T07:06:00.682Z,5.80
2019-02-19T07:08:29.262Z,5.80
2019-02-19T07:10:57.828Z,5.80
2019-02-19T07:13:26.415Z,5.80
2019-02-19T07:15:54.983Z,5.80
2019-02-19T07:18:23.603Z,5.90
2019-02-19T07:20:52.182Z,5.90
2019-02-19T07:23:20.750Z,5.90
2019-02-19T07:25:49.394Z,5.90
2019-02-19T07:28:17.965Z,5.80
2019-02-19T07:30:46.550Z,5.80
2019-02-19T07:33:15.126Z,5.80
2019-02-19T07:35:43.694Z,5.80
2019-02-19T07:38:12.275Z,5.80
2019-02-19T07:40:40.844Z,5.90
2019-02-19T07:43:09.591Z,5.90
2019-02-19T07:45:38.158Z,5.90
2019-02-19T07:48:06.734Z,6.00
2019-02-19T07:50:35.305Z,6.00
2019-02-19T07:53:23.341Z,5.90
2019-02-19T07:55:51.850Z,6.00
2019-02-19T07:58:20.438Z,6.00
2019-02-19T08:00:49.049Z,6.00
2019-02-19T08:03:17.710Z,6.00
2019-02-19T08:05:46.289Z,6.10
2019-02-19T08:08:14.850Z,6.10
2019-02-19T08:10:43.430Z,6.20
2019-02-19T08:13:12.062Z,6.20
2019-02-19T08:15:40.642Z,6.30
2019-02-19T08:18:09.205Z,6.30
2019-02-19T08:20:38.561Z,6.30
2019-02-19T08:23:07.135Z,6.30
2019-02-19T08:25:35.706Z,6.30
2019-02-19T08:28:04.285Z,6.30
2019-02-19T08:30:32.850Z,6.30
2019-02-19T08:33:01.434Z,6.30
2019-02-19T08:35:30.066Z,6.30
2019-02-19T08:37:58.646Z,6.30
2019-02-19T08:40:27.207Z,6.30
2019-02-19T08:42:55.795Z,6.30
2019-02-19T08:45:24.363Z,6.30
2019-02-19T08:47:52.942Z,6.30
2019-02-19T08:50:21.522Z,6.30
2019-02-19T08:52:50.094Z,6.30
2019-02-19T08:55:18.726Z,6.20
2019-02-19T08:57:47.289Z,6.30
2019-02-19T09:00:15.863Z,6.20
2019-02-19T09:02:44.426Z,6.20
2019-02-19T09:05:13.052Z,6.20
2019-02-19T09:07:41.570Z,6.20
2019-02-19T09:10:11.681Z,6.20
2019-02-19T09:12:40.351Z,6.20
2019-02-19T09:15:11.331Z,6.20
2019-02-19T09:17:39.917Z,6.20
2019-02-19T09:20:09.790Z,6.20
2019-02-19T09:22:38.439Z,6.20
2019-02-19T09:25:08.635Z,6.20
2019-02-19T09:27:37.214Z,6.20
2019-02-19T09:30:09.090Z,6.20
2019-02-19T09:32:37.894Z,6.20
2019-02-19T09:35:07.826Z,6.20
2019-02-19T09:37:36.446Z,6.10
2019-02-19T09:40:07.574Z,6.10
2019-02-19T09:42:36.205Z,6.00
2019-02-19T09:45:06.931Z,6.00
2019-02-19T09:47:35.566Z,6.00
2019-02-19T09:50:05.366Z,6.00
2019-02-19T09:52:34.003Z,6.00
2019-02-19T09:55:02.590Z,6.00
2019-02-19T09:57:32.660Z,6.10
2019-02-19T10:00:01.514Z,6.10
2019-02-19T10:02:30.090Z,6.10
2019-02-19T10:04:58.686Z,6.20
2019-02-19T10:07:27.275Z,6.20
2019-02-19T10:09:55.842Z,6.40
2019-02-19T10:12:24.430Z,6.40
2019-02-19T10:14:53.069Z,6.50
2019-02-19T10:17:21.650Z,6.60
2019-02-19T10:19:50.211Z,6.70
2019-02-19T10:22:18.778Z,6.70
2019-02-19T10:24:47.359Z,6.70
2019-02-19T10:27:15.925Z,6.70
2019-02-19T10:29:44.506Z,6.70
2019-02-19T10:32:13.079Z,6.70
2019-02-19T10:34:41.669Z,6.70
2019-02-19T10:37:10.298Z,6.60
2019-02-19T10:39:38.880Z,6.60
2019-02-19T10:42:07.518Z,6.70
2019-02-19T10:44:36.113Z,6.70
2019-02-19T10:47:04.762Z,6.80
2019-02-19T10:49:33.329Z,6.90
2019-02-19T10:52:01.914Z,6.90
2019-02-19T10:54:30.550Z,6.90
2019-02-19T10:56:59.206Z,6.90
2019-02-19T10:59:27.774Z,7.00
2019-02-19T11:01:56.369Z,7.00
2019-02-19T11:04:24.942Z,7.00
2019-02-19T11:06:53.675Z,7.00
2019-02-19T11:09:22.254Z,7.10
2019-02-19T11:11:50.826Z,7.20
2019-02-19T11:14:19.412Z,7.20
2019-02-19T11:16:47.982Z,7.40
2019-02-19T11:19:16.562Z,7.50
2019-02-19T11:21:45.134Z,7.60
2019-02-19T11:24:13.706Z,7.90
2019-02-19T11:26:42.275Z,8.10
2019-02-19T11:29:10.926Z,8.00
2019-02-19T11:31:39.492Z,7.90
2019-02-19T11:34:08.340Z,7.80
2019-02-19T11:36:36.984Z,7.90
2019-02-19T11:39:05.586Z,8.00
2019-02-19T11:41:34.242Z,8.00
2019-02-19T11:44:02.866Z,8.10
2019-02-19T11:46:31.448Z,8.00
2019-02-19T11:49:00.085Z,7.90
2019-02-19T11:51:28.665Z,7.90
2019-02-19T11:53:57.322Z,8.00
2019-02-19T11:56:26.054Z,8.00
2019-02-19T11:58:54.634Z,8.00
2019-02-19T12:01:23.270Z,7.90
2019-02-19T12:03:51.856Z,8.00
2019-02-19T12:06:20.423Z,8.00
2019-02-19T12:08:49.093Z,8.00
2019-02-19T12:11:17.750Z,8.10
2019-02-19T12:13:46.353Z,7.90
2019-02-19T12:16:14.978Z,7.80
2019-02-19T12:18:46.147Z,8.20
2019-02-19T12:21:13.949Z,8.80
2019-02-19T12:23:42.522Z,9.20
2019-02-19T12:26:11.165Z,9.20
2019-02-19T12:28:39.798Z,9.30
2019-02-19T12:31:08.442Z,9.10
2019-02-19T12:33:37.094Z,8.70
2019-02-19T12:36:25.007Z,8.20
2019-02-19T12:39:05.978Z,7.80
2019-02-19T12:41:34.558Z,7.70
2019-02-19T12:44:03.124Z,7.70
2019-02-19T12:46:31.714Z,7.60
2019-02-19T12:49:00.379Z,7.70
2019-02-19T12:51:29.014Z,8.20
2019-02-19T12:53:57.653Z,8.40
2019-02-19T12:56:26.218Z,8.60
2019-02-19T12:58:54.793Z,8.60
2019-02-19T13:01:23.362Z,8.30
2019-02-19T13:03:51.938Z,8.50
2019-02-19T13:06:20.582Z,8.20
2019-02-19T13:08:49.165Z,8.50
2019-02-19T13:11:17.746Z,8.20
2019-02-19T13:13:46.310Z,8.30
2019-02-19T13:16:14.903Z,8.40
2019-02-19T13:18:43.495Z,8.10
2019-02-19T13:21:12.138Z,7.80
2019-02-19T13:23:40.702Z,7.80
2019-02-19T13:26:09.278Z,7.70
2019-02-19T13:28:37.842Z,7.40
2019-02-19T13:31:06.443Z,7.30
2019-02-19T13:33:35.018Z,7.20
2019-02-19T13:36:03.654Z,7.10
2019-02-19T13:38:32.254Z,6.80
2019-02-19T13:41:00.821Z,6.70
2019-02-19T13:43:29.414Z,6.70
2019-02-19T13:45:57.975Z,6.80
2019-02-19T13:48:26.554Z,6.60
2019-02-19T13:50:55.130Z,6.60
2019-02-19T13:53:25.355Z,6.80
2019-02-19T13:55:55.570Z,6.90
2019-02-19T13:58:24.206Z,6.90
2019-02-19T14:00:52.783Z,7.00
2019-02-19T14:03:21.354Z,6.90
2019-02-19T14:05:50.000Z,6.80
2019-02-19T14:08:18.562Z,6.70
2019-02-19T14:10:47.144Z,6.70
2019-02-19T14:13:15.707Z,7.00
2019-02-19T14:15:45.966Z,7.10
2019-02-19T14:18:16.434Z,7.00
2019-02-19T14:20:52.503Z,7.00
2019-02-19T14:23:39.290Z,6.90
2019-02-19T14:26:12.200Z,6.70
2019-02-19T14:28:51.275Z,6.60
2019-02-19T14:31:39.686Z,6.60
2019-02-19T14:34:18.950Z,6.50
2019-02-19T14:36:58.086Z,6.50
2019-02-19T14:39:28.291Z,6.40
2019-02-19T14:42:07.379Z,6.40
2019-02-19T14:44:40.431Z,6.40
2019-02-19T14:47:25.810Z,6.30
2019-02-19T14:49:56.029Z,6.30
2019-02-19T14:52:42.721Z,6.20
2019-02-19T14:55:15.524Z,6.30
2019-02-19T14:57:48.286Z,6.30
2019-02-19T15:00:18.482Z,6.30
2019-02-19T15:03:04.994Z,6.20
2019-02-19T15:05:47.383Z,6.20
2019-02-19T15:08:17.615Z,6.20
2019-02-19T15:10:53.551Z,6.20
2019-02-19T15:13:29.802Z,6.10
2019-02-19T15:16:02.712Z,6.10
2019-02-19T15:18:36.283Z,6.00
2019-02-19T15:21:06.550Z,6.00
2019-02-19T15:23:36.753Z,6.00
2019-02-19T15:26:06.978Z,6.00
2019-02-19T15:28:42.882Z,6.00
2019-02-19T15:31:13.091Z,6.00
2019-02-19T15:33:59.602Z,6.00
2019-02-19T15:36:29.853Z,6.00
2019-02-19T15:39:00.054Z,6.00
2019-02-19T15:41:46.894Z,6.00
2019-02-19T15:44:23.159Z,6.00
2019-02-19T15:46:53.449Z,6.00
2019-02-19T15:49:29.881Z,6.00
2019-02-19T15:52:16.465Z,6.00
2019-02-19T15:55:01.819Z,6.00
2019-02-19T15:57:37.870Z,6.00
2019-02-19T16:00:21.750Z,6.00
2019-02-19T16:02:51.978Z,6.00
2019-02-19T16:05:38.806Z,5.90
2019-02-19T16:08:27.106Z,5.80
2019-02-19T16:10:57.384Z,5.80
2019-02-19T16:13:27.586Z,5.70
2019-02-19T16:15:57.809Z,5.80
2019-02-19T16:18:28.012Z,5.90
2019-02-19T16:21:10.237Z,5.90
2019-02-19T16:23:40.449Z,5.80
2019-02-19T16:26:27.011Z,5.90
2019-02-19T16:29:06.404Z,5.90
2019-02-19T16:31:42.909Z,5.90
2019-02-19T16:34:22.136Z,5.90
2019-02-19T16:36:58.189Z,5.90
2019-02-19T16:39:31.238Z,5.90
2019-02-19T16:42:04.118Z,5.90
2019-02-19T16:44:34.331Z,6.00
2019-02-19T16:47:13.437Z,6.00
2019-02-19T16:49:43.713Z,6.00
2019-02-19T16:52:16.474Z,6.00
2019-02-19T16:54:46.695Z,5.90
2019-02-19T16:57:19.834Z,6.00
2019-02-19T16:59:52.806Z,6.00
2019-02-19T17:02:28.935Z,6.00
2019-02-19T17:05:01.996Z,6.00
2019-02-19T17:07:34.971Z,6.00
2019-02-19T17:10:20.650Z,6.10
2019-02-19T17:12:53.855Z,6.00
2019-02-19T17:15:32.783Z,6.00
2019-02-19T17:18:14.910Z,6.00
2019-02-19T17:20:48.186Z,6.00
2019-02-19T17:23:21.119Z,6.00
2019-02-19T17:26:03.676Z,6.00
2019-02-19T17:28:33.950Z,6.00
2019-02-19T17:31:13.278Z,6.00
2019-02-19T17:33:59.770Z,6.00
2019-02-19T17:36:38.911Z,6.00
2019-02-19T17:39:25.475Z,5.90
2019-02-19T17:41:58.399Z,5.90
2019-02-19T17:44:37.962Z,5.90
2019-02-19T17:47:08.306Z,5.90
2019-02-19T17:49:38.611Z,5.90
2019-02-19T17:52:25.302Z,5.80
2019-02-19T17:54:58.254Z,5.80
2019-02-19T17:57:31.370Z,5.80
2019-02-19T18:00:07.584Z,5.80
2019-02-19T18:02:53.129Z,5.80
2019-02-19T18:05:29.287Z,5.80
2019-02-19T18:08:15.898Z,5.80
2019-02-19T18:10:52.012Z,5.80
2019-02-19T18:13:34.543Z,5.80
2019-02-19T18:16:10.553Z,5.70
2019-02-19T18:18:50.727Z,5.70
2019-02-19T18:21:19.302Z,5.60
2019-02-19T18:23:48.013Z,5.60
2019-02-19T18:26:16.652Z,5.60
2019-02-19T18:28:45.266Z,5.60
2019-02-19T18:31:13.843Z,5.50
2019-02-19T18:33:42.482Z,5.40
2019-02-19T18:36:11.199Z,5.30
2019-02-19T18:38:39.778Z,5.20
2019-02-19T18:41:08.351Z,5.30
2019-02-19T18:43:37.014Z,5.30
2019-02-19T18:46:05.730Z,5.20
2019-02-19T18:48:34.298Z,5.30
2019-02-19T18:51:02.882Z,5.20
2019-02-19T18:53:31.451Z,5.20
2019-02-19T18:56:00.032Z,5.20
2019-02-19T18:58:28.603Z,5.20
2019-02-19T19:00:58.069Z,5.20
2019-02-19T19:03:26.628Z,5.30
2019-02-19T19:05:55.323Z,5.30
2019-02-19T19:08:23.886Z,5.30
2019-02-19T19:10:52.460Z,5.30
2019-02-19T19:13:21.183Z,5.30
2019-02-19T19:15:49.753Z,5.30
2019-02-19T19:18:19.210Z,5.30
2019-02-19T19:20:48.006Z,5.30
2019-02-19T19:23:16.653Z,5.30
2019-02-19T19:25:45.223Z,5.30
2019-02-19T19:28:13.821Z,5.30
2019-02-19T19:30:42.392Z,5.30
2019-02-19T19:33:11.026Z,5.30
2019-02-19T19:35:39.606Z,5.20
2019-02-19T19:38:08.174Z,5.20
2019-02-19T19:40:36.754Z,5.20
2019-02-19T19:43:05.318Z,5.20
2019-02-19T19:45:33.926Z,5.20
2019-02-19T19:48:02.495Z,5.20
2019-02-19T19:50:31.074Z,5.20
2019-02-19T19:52:59.651Z,5.20
2019-02-19T19:55:28.269Z,5.20
2019-02-19T19:57:56.803Z,5.10
2019-02-19T20:00:25.371Z,5.10
2019-02-19T20:02:53.951Z,5.10
2019-02-19T20:05:22.518Z,5.10
2019-02-19T20:07:51.101Z,5.10
2019-02-19T20:10:19.682Z,5.10
2019-02-19T20:12:48.334Z,5.20
2019-02-19T20:15:17.104Z,5.10
2019-02-19T20:17:45.694Z,5.10
2019-02-19T20:20:14.345Z,5.00
2019-02-19T20:22:42.914Z,5.00
2019-02-19T20:25:12.751Z,5.00
2019-02-19T20:27:41.386Z,4.90
2019-02-19T20:30:14.949Z,4.90
2019-02-19T20:32:43.660Z,4.90
2019-02-19T20:35:12.571Z,4.90
2019-02-19T20:37:41.215Z,5.00
2019-02-19T20:40:11.915Z,5.00
2019-02-19T20:42:40.718Z,5.10
2019-02-19T20:45:11.537Z,5.10
2019-02-19T20:47:40.186Z,5.00
2019-02-19T20:50:11.000Z,5.00
2019-02-19T20:52:39.662Z,4.90
2019-02-19T20:55:11.914Z,4.90
2019-02-19T20:57:40.639Z,4.90
2019-02-19T21:00:17.230Z,4.80
2019-02-19T21:02:45.983Z,4.80
2019-02-19T21:05:14.757Z,4.80
2019-02-19T21:07:44.262Z,4.80
2019-02-19T21:10:15.370Z,4.80
2019-02-19T21:12:44.107Z,4.80
2019-02-19T21:15:13.841Z,4.80
2019-02-19T21:17:42.587Z,4.80
2019-02-19T21:20:12.665Z,4.80
2019-02-19T21:22:41.397Z,4.80
2019-02-19T21:25:11.403Z,4.90
2019-02-19T21:27:40.138Z,4.90
2019-02-19T21:30:16.294Z,4.90
2019-02-19T21:32:44.853Z,4.90
2019-02-19T21:35:13.566Z,4.90
2019-02-19T21:37:42.198Z,4.90
2019-02-19T21:40:15.055Z,4.90
2019-02-19T21:42:43.634Z,4.80
2019-02-19T21:45:13.745Z,4.70
2019-02-19T21:47:42.467Z,4.70
2019-02-19T21:50:15.661Z,4.60
2019-02-19T21:52:44.510Z,4.60
2019-02-19T21:55:13.519Z,4.50
2019-02-19T21:57:42.180Z,4.40
2019-02-19T22:00:15.198Z,4.40
2019-02-19T22:02:44.156Z,4.40
2019-02-19T22:05:12.793Z,4.30
2019-02-19T22:07:41.354Z,4.20
2019-02-19T22:10:14.216Z,4.20
2019-02-19T22:12:42.874Z,4.20
2019-02-19T22:15:13.003Z,4.20
2019-02-19T22:17:41.639Z,4.20
2019-02-19T22:20:24.653Z,4.10
2019-02-19T22:22:53.223Z,4.10
2019-02-19T22:25:21.892Z,4.00
2019-02-19T22:27:50.458Z,4.00
2019-02-19T22:30:19.027Z,4.00
2019-02-19T22:32:47.606Z,4.00
2019-02-19T22:35:16.170Z,4.00
2019-02-19T22:37:44.760Z,4.00
2019-02-19T22:40:13.383Z,4.00
2019-02-19T22:42:41.989Z,3.90
2019-02-19T22:45:10.630Z,3.90
2019-02-19T22:47:39.194Z,3.80
2019-02-19T22:50:09.424Z,3.90
2019-02-19T22:52:37.981Z,3.90
2019-02-19T22:55:10.933Z,3.80
2019-02-19T22:57:39.570Z,3.80
2019-02-19T23:00:15.413Z,3.80
2019-02-19T23:02:44.126Z,3.70
2019-02-19T23:05:13.042Z,3.60
2019-02-19T23:07:41.610Z,3.60
2019-02-19T23:10:10.303Z,3.60
2019-02-19T23:12:38.870Z,3.60
2019-02-19T23:15:07.670Z,3.70
2019-02-19T23:17:36.249Z,3.50
2019-02-19T23:20:06.460Z,3.60
2019-02-19T23:22:35.030Z,3.50
2019-02-19T23:25:03.970Z,3.50
2019-02-19T23:27:32.550Z,3.40
2019-02-19T23:30:01.183Z,3.40
2019-02-19T23:32:29.874Z,3.40
2019-02-19T23:35:12.135Z,3.40
2019-02-19T23:37:40.782Z,3.30
2019-02-19T23:40:09.427Z,3.30
2019-02-19T23:42:38.063Z,3.20
2019-02-19T23:45:08.377Z,3.30
2019-02-19T23:47:37.079Z,3.20
2019-02-19T23:50:07.697Z,3.10
2019-02-19T23:52:36.325Z,3.10
2019-02-19T23:55:07.145Z,3.10
2019-02-19T23:57:35.718Z,3.10
